Time;durP1;ratioP1;P1;durP2;ratioP2;P2;SDS_P1;SDS_P2;PMS_P1;PMS_P2;Temp;Humidity;BMP_temperature;BMP_pressure;BME280_temperature;BME280_humidity;BME280_pressure;Samples;Min_cycle;Max_cycle;Signal;HPM_P1;HPM_P2
2021/06/08 00:02:20;;;;;;;10.03;7.30;;;13.10;99.90;;;;;;5069495;29;20207;-63
2021/06/08 00:04:52;;;;;;;12.73;8.00;;;13.10;99.90;;;;;;5069469;29;20191;-62
2021/06/08 00:07:24;;;;;;;12.53;7.90;;;13.00;99.90;;;;;;5069214;29;20210;-63
2021/06/08 00:09:56;;;;;;;12.77;7.67;;;13.00;99.90;;;;;;5069279;29;20226;-61
2021/06/08 00:12:28;;;;;;;13.93;8.20;;;13.00;99.90;;;;;;5069454;29;20195;-63
2021/06/08 00:15:00;;;;;;;14.03;7.77;;;13.00;99.90;;;;;;5069071;29;20288;-66
2021/06/08 00:17:32;;;;;;;14.67;8.53;;;13.00;99.90;;;;;;5068830;29;20238;-64
2021/06/08 00:20:05;;;;;;;14.20;8.23;;;12.90;99.90;;;;;;5068940;29;20277;-64
2021/06/08 00:22:37;;;;;;;9.47;7.37;;;12.90;99.90;;;;;;5052539;29;20195;-63
2021/06/08 00:29:05;;;;;;;12.47;7.90;;;12.80;99.90;;;;;;5068769;29;20646;-63
2021/06/08 00:31:37;;;;;;;15.23;8.30;;;12.80;99.90;;;;;;5068999;29;20576;-63
2021/06/08 00:34:09;;;;;;;15.30;7.53;;;12.80;99.90;;;;;;5068988;29;20199;-63
2021/06/08 00:36:41;;;;;;;10.47;7.30;;;12.80;99.90;;;;;;5068253;29;20644;-62
2021/06/08 00:39:13;;;;;;;9.57;6.93;;;12.80;99.90;;;;;;5052289;29;20618;-65
2021/06/08 00:45:40;;;;;;;11.83;7.20;;;12.80;99.90;;;;;;5068565;29;20173;-63
2021/06/08 00:48:14;;;;;;;11.97;7.73;;;12.70;99.90;;;;;;5068497;29;20242;-62
2021/06/08 00:50:46;;;;;;;10.50;7.67;;;12.70;99.90;;;;;;5068557;29;20203;-64
2021/06/08 00:53:18;;;;;;;11.80;7.57;;;12.70;99.90;;;;;;5068242;29;20202;-63
2021/06/08 00:55:51;;;;;;;9.87;7.57;;;12.70;99.90;;;;;;5068118;29;20207;-64
2021/06/08 00:58:23;;;;;;;10.50;7.23;;;12.70;99.90;;;;;;5068151;29;20203;-62
2021/06/08 01:00:55;;;;;;;10.70;7.00;;;12.60;99.90;;;;;;5068460;29;20647;-63
2021/06/08 01:03:27;;;;;;;10.33;7.57;;;12.60;99.90;;;;;;5068321;29;20619;-61
2021/06/08 01:05:59;;;;;;;9.87;6.97;;;12.60;99.90;;;;;;5068442;29;20667;-64
2021/06/08 01:08:31;;;;;;;11.77;7.60;;;12.60;99.90;;;;;;5068250;29;20230;-67
2021/06/08 01:11:02;;;;;;;10.90;7.47;;;12.60;99.90;;;;;;5068198;29;20199;-63
2021/06/08 01:13:34;;;;;;;11.57;7.47;;;12.50;99.90;;;;;;5067894;29;20195;-63
2021/06/08 01:16:06;;;;;;;13.73;7.90;;;12.50;99.90;;;;;;5068191;29;20564;-63
2021/06/08 01:18:38;;;;;;;11.80;7.60;;;12.50;99.90;;;;;;5067647;29;20290;-63
2021/06/08 01:21:12;;;;;;;8.57;7.33;;;12.50;99.90;;;;;;5068112;29;20230;-62
2021/06/08 01:23:44;;;;;;;10.30;6.97;;;12.50;99.90;;;;;;5068090;29;20217;-63
2021/06/08 01:26:17;;;;;;;10.30;6.57;;;12.50;99.90;;;;;;5067688;29;20210;-63
2021/06/08 01:28:50;;;;;;;11.07;6.37;;;12.50;99.90;;;;;;5067848;29;20580;-64
2021/06/08 01:31:24;;;;;;;11.30;6.57;;;12.50;99.90;;;;;;5067937;29;20207;-63
2021/06/08 01:33:57;;;;;;;9.87;6.57;;;12.50;99.90;;;;;;5067897;29;20203;-64
2021/06/08 01:36:33;;;;;;;11.33;6.77;;;12.50;99.90;;;;;;5068004;29;20646;-63
2021/06/08 01:39:06;;;;;;;10.47;6.10;;;12.50;99.90;;;;;;5067960;29;20199;-63
2021/06/08 01:41:38;;;;;;;9.17;6.20;;;12.50;99.90;;;;;;5067524;29;20195;-62
2021/06/08 01:44:13;;;;;;;8.63;6.30;;;12.50;99.90;;;;;;5067803;29;20210;-63
2021/06/08 01:46:45;;;;;;;9.03;6.10;;;12.50;99.90;;;;;;5067777;29;20201;-62
2021/06/08 01:49:17;;;;;;;7.80;6.00;;;12.50;99.90;;;;;;5067282;29;20222;-64
2021/06/08 01:52:00;;;;;;;14.33;6.57;;;12.50;99.90;;;;;;5067719;29;20547;-62
2021/06/08 01:54:44;;;;;;;12.30;6.67;;;12.40;99.90;;;;;;5067751;29;20567;-63
2021/06/08 01:57:18;;;;;;;11.53;6.50;;;12.40;99.90;;;;;;5067713;29;20199;-63
2021/06/08 01:59:53;;;;;;;14.73;7.47;;;12.40;99.90;;;;;;5067357;29;20214;-64
2021/06/08 02:02:27;;;;;;;10.60;5.97;;;12.40;99.90;;;;;;5067908;29;20206;-62
2021/06/08 02:05:23;;;;;;;9.87;6.27;;;12.40;99.90;;;;;;5067472;29;20195;-63
2021/06/08 02:08:14;;;;;;;10.27;6.47;;;12.40;99.90;;;;;;5067678;29;20672;-64
2021/06/08 02:14:56;;;;;;;8.37;6.13;;;12.40;99.90;;;;;;5067450;29;20185;-63
2021/06/08 02:17:45;;;;;;;9.33;6.40;;;12.40;99.90;;;;;;5067269;29;20235;-64
2021/06/08 02:20:23;;;;;;;9.97;6.40;;;12.40;99.90;;;;;;5067232;29;20196;-63
2021/06/08 02:23:11;;;;;;;9.77;5.70;;;12.40;99.90;;;;;;5067488;29;20245;-63
2021/06/08 02:25:44;;;;;;;8.70;5.83;;;12.40;99.90;;;;;;5067610;29;20202;-63
2021/06/08 02:28:19;;;;;;;10.73;6.70;;;12.40;99.90;;;;;;5067305;29;20204;-62
2021/06/08 02:30:54;;;;;;;10.10;6.50;;;12.40;99.90;;;;;;5067538;29;20207;-62
2021/06/08 02:33:26;;;;;;;11.93;6.60;;;12.40;99.90;;;;;;5067563;29;20202;-63
2021/06/08 02:35:58;;;;;;;10.33;6.83;;;12.40;99.90;;;;;;5067113;29;20205;-63
2021/06/08 02:38:35;;;;;;;13.70;6.63;;;12.40;99.90;;;;;;5067406;29;20207;-64
2021/06/08 02:41:08;;;;;;;10.60;6.60;;;12.40;99.90;;;;;;5067282;29;20217;-64
2021/06/08 02:43:41;;;;;;;9.77;6.03;;;12.40;99.90;;;;;;5067123;29;20281;-71
2021/06/08 02:46:15;;;;;;;14.70;6.73;;;12.40;99.90;;;;;;5067008;29;20218;-68
2021/06/08 02:48:47;;;;;;;12.13;6.33;;;12.50;99.90;;;;;;5066874;29;20215;-63
2021/06/08 02:51:21;;;;;;;7.83;5.90;;;12.50;99.90;;;;;;5067270;29;20203;-66
2021/06/08 02:53:54;;;;;;;12.13;7.07;;;12.50;99.90;;;;;;5067034;29;20197;-64
2021/06/08 02:56:27;;;;;;;10.73;7.27;;;12.50;99.90;;;;;;5067127;29;20206;-65
2021/06/08 02:59:01;;;;;;;12.40;7.30;;;12.50;99.90;;;;;;5067526;29;20559;-64
2021/06/08 03:01:36;;;;;;;13.20;7.90;;;12.60;99.90;;;;;;5069933;29;20226;-62
2021/06/08 03:04:11;;;;;;;11.37;7.40;;;12.60;99.90;;;;;;5071079;29;20258;-62
2021/06/08 03:06:51;;;;;;;12.83;7.13;;;12.70;99.90;;;;;;5070456;29;20199;-62
2021/06/08 03:09:37;;;;;;;13.37;6.83;;;12.70;99.90;;;;;;5070929;29;20678;-62
2021/06/08 03:12:13;;;;;;;9.90;6.80;;;12.80;99.90;;;;;;5070222;29;20250;-62
2021/06/08 03:14:47;;;;;;;12.33;7.03;;;12.80;99.90;;;;;;5070225;29;20199;-65
2021/06/08 03:17:24;;;;;;;10.53;6.87;;;12.80;99.90;;;;;;5069923;29;20723;-62
2021/06/08 03:20:03;;;;;;;9.13;6.10;;;12.90;99.90;;;;;;5069804;29;20195;-61
2021/06/08 03:22:36;;;;;;;13.13;6.73;;;13.00;99.90;;;;;;5070182;29;20590;-62
2021/06/08 03:25:11;;;;;;;9.80;6.60;;;13.10;99.90;;;;;;5069756;29;20239;-64
2021/06/08 03:27:45;;;;;;;11.23;7.00;;;13.10;99.90;;;;;;5069887;29;20199;-63
2021/06/08 03:30:18;;;;;;;12.70;6.73;;;13.30;99.90;;;;;;5069673;29;20222;-64
2021/06/08 03:32:52;;;;;;;11.63;6.73;;;13.40;99.90;;;;;;5069666;29;20218;-64
2021/06/08 03:35:26;;;;;;;11.43;6.70;;;13.50;99.90;;;;;;5069975;29;20203;-66
2021/06/08 03:37:59;;;;;;;13.30;6.60;;;13.60;99.90;;;;;;5069481;29;20202;-68
2021/06/08 03:40:31;;;;;;;11.17;7.07;;;13.70;99.90;;;;;;5069604;29;20211;-65
2021/06/08 03:43:04;;;;;;;10.00;6.50;;;13.80;99.90;;;;;;5069306;29;20199;-67
2021/06/08 03:45:36;;;;;;;11.17;6.57;;;13.90;99.90;;;;;;5069683;29;20192;-68
2021/06/08 03:48:08;;;;;;;8.47;6.37;;;13.90;99.90;;;;;;5069377;29;20199;-65
2021/06/08 03:50:42;;;;;;;11.10;6.77;;;14.00;99.90;;;;;;5069234;29;20223;-66
2021/06/08 03:53:14;;;;;;;10.80;6.60;;;14.10;99.90;;;;;;5069629;29;20198;-65
2021/06/08 03:55:48;;;;;;;10.63;5.87;;;14.10;99.90;;;;;;5069315;29;20199;-67
2021/06/08 03:58:21;;;;;;;12.47;6.07;;;14.20;99.90;;;;;;4991171;29;20270;-66
2021/06/08 04:00:56;;;;;;;8.90;5.87;;;14.20;99.90;;;;;;4990961;29;20548;-65
2021/06/08 04:03:28;;;;;;;8.83;5.67;;;14.30;99.90;;;;;;4990625;29;20262;-69
2021/06/08 04:06:01;;;;;;;8.77;5.97;;;14.40;99.90;;;;;;4990787;29;20660;-69
2021/06/08 04:08:33;;;;;;;7.07;4.93;;;14.40;99.90;;;;;;4990495;29;20198;-68
2021/06/08 04:15:02;;;;;;;11.57;5.33;;;14.60;99.90;;;;;;4990772;29;20307;-67
2021/06/08 04:17:35;;;;;;;9.83;5.00;;;14.70;99.90;;;;;;5064381;29;20239;-66
2021/06/08 04:20:09;;;;;;;11.60;5.33;;;14.70;99.90;;;;;;5068865;29;20199;-65
2021/06/08 04:22:45;;;;;;;10.97;4.80;;;14.80;99.90;;;;;;5069053;29;20210;-68
2021/06/08 04:25:19;;;;;;;10.77;5.30;;;14.90;99.90;;;;;;5069095;29;20202;-67
2021/06/08 04:31:47;;;;;;;7.00;4.70;;;15.10;99.90;;;;;;5068688;29;20190;-68
2021/06/08 04:34:19;;;;;;;19.27;5.40;;;15.20;99.90;;;;;;5068571;29;20199;-68
2021/06/08 04:36:51;;;;;;;12.93;4.90;;;15.30;99.90;;;;;;5068502;29;20203;-67
2021/06/08 04:39:23;;;;;;;9.67;5.03;;;15.30;99.90;;;;;;5068639;29;20195;-66
2021/06/08 04:41:55;;;;;;;9.60;4.37;;;15.40;99.90;;;;;;5068628;29;20206;-66
2021/06/08 04:44:27;;;;;;;7.03;4.30;;;15.40;99.90;;;;;;5068858;29;20258;-65
2021/06/08 04:46:59;;;;;;;8.13;4.67;;;15.60;99.90;;;;;;5068571;29;20230;-63
2021/06/08 04:49:31;;;;;;;12.97;5.50;;;15.70;99.90;;;;;;5068293;29;20227;-67
2021/06/08 04:52:05;;;;;;;10.83;4.77;;;15.80;99.90;;;;;;5068286;29;20210;-65
2021/06/08 04:54:37;;;;;;;8.70;4.50;;;15.90;99.90;;;;;;5068170;29;20210;-63
2021/06/08 04:57:14;;;;;;;14.53;4.67;;;16.10;99.90;;;;;;5068117;29;20251;-70
2021/06/08 05:00:00;;;;;;;14.27;4.27;;;16.20;99.90;;;;;;5068362;29;20202;-65
2021/06/08 05:02:44;;;;;;;11.27;4.73;;;16.40;99.90;;;;;;5068363;29;20195;-64
2021/06/08 05:05:23;;;;;;;11.23;4.77;;;16.50;99.90;;;;;;5068329;29;20194;-68
2021/06/08 05:08:03;;;;;;;12.40;4.80;;;16.70;99.90;;;;;;5068225;29;20235;-63
2021/06/08 05:10:43;;;;;;;9.60;4.60;;;16.80;99.90;;;;;;5068065;29;20230;-68
2021/06/08 05:13:17;;;;;;;5.95;4.40;;;16.90;99.90;;;;;;5068197;29;20199;-68
2021/06/08 05:15:51;;;;;;;12.05;4.68;;;17.00;99.90;;;;;;5068061;29;20213;-67
2021/06/08 05:18:25;;;;;;;8.60;4.53;;;17.20;99.90;;;;;;5067739;29;20574;-63
2021/06/08 05:20:57;;;;;;;6.43;3.97;;;17.30;99.90;;;;;;5067943;29;20195;-66
2021/06/08 05:23:29;;;;;;;7.80;4.50;;;17.40;99.90;;;;;;5068094;29;20255;-65
2021/06/08 05:26:02;;;;;;;12.57;4.28;;;17.40;99.90;;;;;;5067771;29;20206;-66
2021/06/08 05:28:35;;;;;;;10.20;4.53;;;17.60;99.90;;;;;;5050822;29;20294;-64
2021/06/08 05:31:07;;;;;;;7.93;4.13;;;17.70;99.90;;;;;;5067448;29;20230;-65
2021/06/08 05:33:40;;;;;;;6.13;3.30;;;17.80;99.90;;;;;;5067729;29;20610;-65
2021/06/08 05:36:12;;;;;;;11.43;3.30;;;18.00;99.90;;;;;;5067411;29;20199;-68
2021/06/08 05:38:46;;;;;;;3.08;2.67;;;18.30;99.90;;;;;;5067762;29;20203;-66
2021/06/08 05:45:14;;;;;;;7.28;2.20;;;21.20;99.90;;;;;;5067529;29;20221;-70
2021/06/08 05:47:46;;;;;;;3.42;2.15;;;24.40;99.90;;;;;;5067496;29;20613;-72
2021/06/08 05:50:19;;;;;;;3.28;2.30;;;26.30;99.90;;;;;;5067536;29;20633;-68
2021/06/08 05:52:54;;;;;;;10.38;2.10;;;27.90;97.90;;;;;;5067808;29;20202;-68
2021/06/08 05:55:29;;;;;;;2.97;1.98;;;29.10;93.70;;;;;;5068381;29;20567;-71
2021/06/08 06:01:57;;;;;;;4.93;1.98;;;30.90;87.00;;;;;;5068549;29;20206;-75
2021/06/08 06:04:29;;;;;;;3.83;1.77;;;32.00;80.60;;;;;;5068324;29;20250;-75
2021/06/08 06:07:03;;;;;;;3.25;1.90;;;32.80;77.60;;;;;;5069253;29;20369;-75
2021/06/08 06:09:35;;;;;;;3.20;1.80;;;33.10;73.00;;;;;;5053015;29;20222;-75
2021/06/08 06:12:08;;;;;;;3.22;1.80;;;33.50;70.70;;;;;;5068435;29;20229;-75
2021/06/08 06:14:41;;;;;;;4.65;1.83;;;33.40;68.40;;;;;;5068094;29;20199;-74
2021/06/08 06:17:14;;;;;;;2.97;1.80;;;33.30;68.10;;;;;;5068095;29;20242;-73
2021/06/08 06:19:47;;;;;;;4.97;1.75;;;33.60;66.90;;;;;;5067985;29;20198;-78
2021/06/08 06:22:19;;;;;;;3.05;1.88;;;34.10;65.40;;;;;;5065957;29;20198;-73
2021/06/08 06:24:51;;;;;;;3.97;1.90;;;33.90;64.20;;;;;;5067224;29;20198;-65
2021/06/08 06:27:24;;;;;;;4.65;1.98;;;33.30;64.90;;;;;;5066784;29;20195;-66
2021/06/08 06:29:57;;;;;;;4.50;1.50;;;33.50;63.60;;;;;;5067313;29;20222;-65
2021/06/08 06:32:29;;;;;;;3.28;1.80;;;33.70;63.20;;;;;;5067350;29;20635;-65
2021/06/08 06:35:03;;;;;;;2.95;1.70;;;34.40;62.60;;;;;;5067646;29;20199;-66
2021/06/08 06:37:36;;;;;;;2.67;1.73;;;34.90;60.10;;;;;;5070748;29;20197;-65
2021/06/08 06:40:14;;;;;;;3.72;1.70;;;34.50;59.90;;;;;;5070475;29;20429;-67
2021/06/08 06:42:48;;;;;;;2.63;1.80;;;34.10;59.90;;;;;;5070813;29;20210;-71
2021/06/08 06:45:23;;;;;;;3.22;1.67;;;33.60;59.40;;;;;;5070589;29;20205;-66
2021/06/08 06:48:02;;;;;;;6.00;2.03;;;32.90;60.40;;;;;;5070206;29;20542;-67
2021/06/08 06:50:37;;;;;;;2.08;1.73;;;33.50;60.40;;;;;;5070962;29;20226;-60
2021/06/08 06:53:10;;;;;;;3.33;2.00;;;34.00;60.30;;;;;;5069812;29;20206;-59
2021/06/08 06:55:42;;;;;;;3.33;1.88;;;34.20;58.70;;;;;;5070347;29;20209;-61
2021/06/08 06:58:19;;;;;;;4.40;1.75;;;34.20;58.00;;;;;;5070391;29;20580;-60
2021/06/08 07:00:54;;;;;;;3.05;1.58;;;34.20;58.20;;;;;;5078362;29;20297;-72
2021/06/08 07:03:31;;;;;;;2.53;1.80;;;34.00;57.80;;;;;;5074845;29;20665;-70
2021/06/08 07:06:04;;;;;;;5.32;1.73;;;33.50;57.80;;;;;;5080279;29;20277;-76
2021/06/08 07:08:38;;;;;;;5.80;1.88;;;33.00;58.70;;;;;;5056993;29;20337;-72
2021/06/08 07:11:11;;;;;;;3.53;1.90;;;32.40;58.60;;;;;;5076039;29;20222;-75
2021/06/08 07:13:44;;;;;;;3.50;2.00;;;31.60;59.60;;;;;;5070857;29;20205;-73
2021/06/08 07:16:17;;;;;;;3.53;1.65;;;30.60;60.30;;;;;;5071699;29;20670;-72
2021/06/08 07:18:50;;;;;;;4.45;1.63;;;30.50;60.30;;;;;;5073342;29;20223;-71
2021/06/08 07:21:24;;;;;;;4.93;2.13;;;30.40;61.90;;;;;;5071467;29;20206;-64
2021/06/08 07:23:57;;;;;;;2.50;1.77;;;30.20;61.80;;;;;;5070116;29;20608;-67
2021/06/08 07:26:29;;;;;;;2.80;2.55;;;29.20;62.90;;;;;;5069916;29;20214;-67
2021/06/08 07:29:02;;;;;;;5.57;2.30;;;28.60;63.00;;;;;;5053182;29;20203;-66
2021/06/08 07:32:01;;;;;;;7.13;2.20;;;27.90;65.30;;;;;;5069368;29;20571;-66
2021/06/08 07:34:33;;;;;;;4.13;1.88;;;27.60;66.20;;;;;;5069774;29;20199;-64
2021/06/08 07:37:12;;;;;;;2.47;1.80;;;27.40;66.90;;;;;;5069877;29;20195;-65
2021/06/08 07:39:58;;;;;;;4.03;2.47;;;27.30;68.00;;;;;;5069652;29;20199;-66
2021/06/08 07:46:26;;;;;;;4.60;2.42;;;26.80;69.30;;;;;;5069716;29;20265;-50
2021/06/08 07:49:00;;;;;;;4.75;2.58;;;26.40;70.20;;;;;;5069551;29;20632;-67
2021/06/08 07:51:33;;;;;;;2.35;2.15;;;26.30;70.60;;;;;;5069617;29;20223;-55
2021/06/08 07:54:06;;;;;;;5.47;2.30;;;26.10;69.30;;;;;;5069184;29;20195;-51
2021/06/08 07:56:38;;;;;;;4.25;2.40;;;26.00;70.30;;;;;;5069149;29;20199;-43
2021/06/08 08:06:12;;;;;;;4.50;2.83;;;26.10;71.70;;;;;;5069014;29;20199;-62
2021/06/08 08:08:47;;;;;;;5.60;2.47;;;26.10;71.20;;;;;;5069133;29;20196;-61
2021/06/08 08:11:19;;;;;;;3.92;2.40;;;26.10;72.20;;;;;;5068806;29;20686;-51
2021/06/08 08:13:52;;;;;;;3.67;2.38;;;25.80;71.20;;;;;;5068661;29;20206;-59
2021/06/08 08:16:25;;;;;;;5.72;2.55;;;25.80;71.70;;;;;;5066797;29;20218;-65
2021/06/08 08:18:58;;;;;;;6.22;2.75;;;26.00;72.90;;;;;;5068879;29;20199;-62
2021/06/08 08:21:30;;;;;;;9.30;3.13;;;26.10;74.00;;;;;;5068931;29;20199;-53
2021/06/08 08:24:03;;;;;;;6.38;2.55;;;26.30;74.10;;;;;;5068540;29;20218;-65
2021/06/08 08:26:35;;;;;;;8.98;3.80;;;26.40;74.50;;;;;;5052058;29;20565;-63
2021/06/08 08:29:07;;;;;;;6.07;3.22;;;26.60;74.10;;;;;;5068319;29;20191;-60
2021/06/08 08:31:40;;;;;;;7.97;2.85;;;26.50;74.00;;;;;;5068158;29;20223;-57
2021/06/08 08:34:12;;;;;;;7.28;3.30;;;26.40;72.90;;;;;;5068736;29;20203;-47
2021/06/08 08:36:44;;;;;;;5.47;2.78;;;26.50;73.80;;;;;;5068206;29;20199;-46
2021/06/08 08:39:16;;;;;;;7.03;2.90;;;26.20;74.50;;;;;;5068678;29;20195;-45
2021/06/08 08:41:52;;;;;;;3.47;2.50;;;26.00;74.80;;;;;;5068440;29;20202;-55
2021/06/08 08:44:25;;;;;;;5.32;2.50;;;25.50;74.00;;;;;;5051244;29;20210;-48
2021/06/08 08:46:57;;;;;;;7.28;3.25;;;25.10;75.10;;;;;;5068406;29;20195;-64
2021/06/08 08:49:29;;;;;;;4.53;2.83;;;25.00;75.70;;;;;;5068095;29;20209;-69
2021/06/08 08:52:03;;;;;;;6.15;2.80;;;25.00;76.30;;;;;;5068238;29;20603;-64
2021/06/08 08:54:37;;;;;;;9.70;3.67;;;25.00;77.00;;;;;;5068173;29;20565;-65
2021/06/08 09:01:05;;;;;;;7.30;3.45;;;24.30;79.50;;;;;;5067990;29;20261;-66
2021/06/08 09:03:38;;;;;;;7.18;3.38;;;24.60;79.90;;;;;;5067824;29;20270;-52
2021/06/08 09:06:12;;;;;;;9.30;3.85;;;24.60;80.50;;;;;;5068002;29;20218;-65
2021/06/08 09:08:44;;;;;;;9.02;3.45;;;24.50;82.20;;;;;;5067979;29;20253;-61
2021/06/08 09:11:16;;;;;;;6.68;3.40;;;24.70;81.50;;;;;;5050976;29;20694;-64
2021/06/08 09:17:44;;;;;;;6.45;3.38;;;24.70;82.30;;;;;;5067604;29;20677;-54
2021/06/08 09:20:16;;;;;;;7.47;3.42;;;24.60;82.40;;;;;;5067820;29;20192;-61
2021/06/08 09:23:01;;;;;;;4.60;3.47;;;24.40;83.00;;;;;;5067476;29;20654;-65
2021/06/08 09:25:42;;;;;;;6.65;3.55;;;24.20;84.20;;;;;;5067221;29;20202;-59
2021/06/08 09:28:31;;;;;;;6.97;3.17;;;24.00;83.50;;;;;;5067552;29;20269;-63
2021/06/08 09:31:25;;;;;;;9.43;3.28;;;24.00;84.60;;;;;;5067436;29;20707;-57
2021/06/08 09:34:02;;;;;;;4.95;3.22;;;23.90;85.80;;;;;;5051666;29;20211;-55
2021/06/08 09:36:34;;;;;;;8.73;3.55;;;24.10;85.30;;;;;;5067551;29;20198;-51
2021/06/08 09:39:06;;;;;;;6.72;3.72;;;24.00;83.90;;;;;;5067523;29;20199;-66
2021/06/08 09:41:47;;;;;;;8.20;3.83;;;23.90;85.40;;;;;;5067218;29;20207;-63
2021/06/08 09:44:20;;;;;;;13.13;3.75;;;24.00;84.70;;;;;;5067647;29;20586;-57
2021/06/08 09:46:56;;;;;;;6.78;3.28;;;24.00;86.30;;;;;;5067176;29;20206;-66
2021/06/08 09:49:31;;;;;;;9.55;4.20;;;24.10;86.10;;;;;;5067606;29;20204;-50
2021/06/08 09:52:10;;;;;;;7.97;3.30;;;24.20;86.60;;;;;;5067232;29;20213;-64
2021/06/08 09:54:50;;;;;;;9.70;3.47;;;24.30;85.70;;;;;;5064763;29;20202;-68
2021/06/08 10:01:22;;;;;;;9.98;3.63;;;24.20;85.50;;;;;;5065658;29;20207;-55
2021/06/08 10:04:00;;;;;;;12.27;5.22;;;24.00;86.60;;;;;;5067341;29;20278;-57
2021/06/08 10:06:38;;;;;;;9.73;3.88;;;24.10;87.60;;;;;;5067242;29;20600;-63
2021/06/08 10:09:12;;;;;;;8.85;3.85;;;24.20;86.50;;;;;;5067010;29;20202;-64
2021/06/08 10:11:45;;;;;;;20.05;4.53;;;24.20;86.10;;;;;;5070657;29;20246;-60
2021/06/08 10:18:13;;;;;;;8.35;3.90;;;24.20;86.50;;;;;;5070638;29;20313;-74
2021/06/08 10:20:54;;;;;;;6.43;3.92;;;24.00;86.50;;;;;;5071327;29;20635;-72
2021/06/08 10:23:29;;;;;;;6.60;3.30;;;23.80;86.60;;;;;;5071372;29;20203;-73
2021/06/08 10:26:10;;;;;;;8.75;3.92;;;23.70;88.10;;;;;;5071055;29;20202;-72
2021/06/08 10:32:38;;;;;;;8.30;3.72;;;23.70;88.40;;;;;;5070921;29;20194;-52
2021/06/08 10:35:12;;;;;;;9.85;3.80;;;23.60;87.70;;;;;;5070512;29;20206;-48
2021/06/08 10:37:44;;;;;;;8.82;4.18;;;23.40;88.60;;;;;;5070492;29;20203;-74
2021/06/08 10:40:19;;;;;;;4.20;3.60;;;23.60;90.20;;;;;;5064922;29;20195;-72
2021/06/08 10:42:51;;;;;;;7.18;4.60;;;23.30;90.10;;;;;;5070739;29;20623;-74
2021/06/08 10:45:36;;;;;;;7.97;3.47;;;23.30;90.20;;;;;;5070546;29;20206;-72
2021/06/08 10:48:16;;;;;;;11.63;4.20;;;23.30;90.70;;;;;;5069372;29;20203;-70
2021/06/08 10:50:50;;;;;;;10.57;4.10;;;23.40;90.60;;;;;;5068682;29;20446;-72
2021/06/08 10:53:35;;;;;;;9.05;4.35;;;23.40;90.40;;;;;;5070883;29;20635;-70
2021/06/08 10:56:35;;;;;;;6.10;4.00;;;23.40;90.70;;;;;;5070216;29;20199;-75
2021/06/08 10:59:09;;;;;;;6.00;4.13;;;23.30;90.70;;;;;;5070350;29;20210;-72
2021/06/08 11:01:42;;;;;;;25.60;8.20;;;23.20;91.10;;;;;;5064125;29;20661;-70
2021/06/08 11:04:24;;;;;;;12.05;4.45;;;23.10;91.20;;;;;;5070524;29;20203;-71
2021/06/08 11:07:01;;;;;;;8.77;4.28;;;23.10;91.20;;;;;;5070089;29;20203;-67
2021/06/08 11:09:36;;;;;;;8.00;4.28;;;23.10;91.60;;;;;;5070287;29;20202;-69
2021/06/08 11:12:07;;;;;;;7.20;4.20;;;23.10;91.60;;;;;;5069964;29;20223;-65
2021/06/08 11:14:43;;;;;;;12.40;5.22;;;23.00;91.70;;;;;;5070188;29;20195;-67
2021/06/08 11:17:29;;;;;;;7.60;4.03;;;22.90;92.00;;;;;;5069948;29;20246;-67
2021/06/08 11:20:12;;;;;;;10.02;4.18;;;22.80;91.80;;;;;;5070001;29;20199;-67
2021/06/08 11:22:51;;;;;;;7.20;4.07;;;22.70;91.60;;;;;;5069743;29;20218;-67
2021/06/08 11:25:43;;;;;;;11.02;4.28;;;22.70;91.80;;;;;;5070106;29;20202;-52
2021/06/08 11:32:32;;;;;;;10.70;4.15;;;23.00;91.60;;;;;;5069734;29;20670;-56
2021/06/08 11:35:17;;;;;;;8.10;4.18;;;23.20;91.30;;;;;;5054323;29;20221;-54
2021/06/08 11:37:58;;;;;;;6.13;3.85;;;23.20;90.90;;;;;;5052931;29;20202;-70
2021/06/08 11:40:39;;;;;;;8.93;4.18;;;23.10;91.10;;;;;;5066840;29;20199;-63
2021/06/08 11:43:11;;;;;;;6.85;3.90;;;23.00;91.50;;;;;;5067096;29;20199;-62
2021/06/08 11:45:48;;;;;;;5.07;3.83;;;22.90;91.30;;;;;;5068040;29;20201;-61
2021/06/08 11:48:36;;;;;;;4.75;4.05;;;22.90;91.60;;;;;;5067881;29;20195;-63
2021/06/08 11:51:22;;;;;;;4.63;3.70;;;22.90;91.40;;;;;;5069602;29;20575;-63
2021/06/08 11:53:57;;;;;;;8.18;4.20;;;22.80;92.20;;;;;;5068113;29;20203;-63
2021/06/08 11:56:47;;;;;;;9.30;4.65;;;22.90;92.20;;;;;;5069594;29;20560;-62
2021/06/08 11:59:32;;;;;;;9.98;4.00;;;22.80;92.10;;;;;;5068982;29;20199;-65
2021/06/08 12:02:06;;;;;;;5.57;3.97;;;22.70;92.10;;;;;;5052563;29;20198;-66
2021/06/08 12:05:04;;;;;;;5.50;4.15;;;22.80;92.30;;;;;;5052847;29;20194;-63
2021/06/08 12:07:48;;;;;;;5.18;3.90;;;22.70;92.40;;;;;;5069254;29;20195;-64
2021/06/08 12:10:40;;;;;;;8.95;4.47;;;22.70;92.70;;;;;;5068960;29;20210;-63
2021/06/08 12:17:03;;;;;;;6.35;4.53;;;22.80;92.10;;;;;;5068870;29;20230;-63
2021/06/08 12:19:35;;;;;;;6.22;3.60;;;22.90;92.10;;;;;;5069073;29;20278;-62
2021/06/08 12:22:20;;;;;;;5.35;3.83;;;23.00;92.20;;;;;;5068816;29;20207;-62
2021/06/08 12:24:56;;;;;;;7.50;3.80;;;23.00;91.90;;;;;;5052173;29;20217;-62
2021/06/08 12:27:35;;;;;;;5.07;3.42;;;23.10;92.10;;;;;;5051877;29;20264;-50
2021/06/08 12:34:16;;;;;;;5.47;3.75;;;23.20;91.60;;;;;;5067597;29;20196;-56
2021/06/08 12:36:49;;;;;;;7.95;4.10;;;23.30;91.50;;;;;;5068389;29;20210;-59
2021/06/08 12:39:28;;;;;;;4.85;3.47;;;23.40;90.80;;;;;;5068549;29;20211;-52
2021/06/08 12:42:12;;;;;;;7.03;3.40;;;23.50;90.60;;;;;;5068545;29;20289;-58
2021/06/08 12:44:46;;;;;;;10.80;4.03;;;23.50;90.80;;;;;;5051610;29;20207;-65
2021/06/08 12:47:22;;;;;;;5.97;3.60;;;23.50;90.70;;;;;;5068240;29;20201;-57
2021/06/08 12:49:54;;;;;;;5.70;3.30;;;23.30;90.70;;;;;;5068098;29;20206;-65
2021/06/08 12:52:28;;;;;;;13.70;4.05;;;23.20;90.10;;;;;;5051861;29;20634;-58
2021/06/08 12:55:09;;;;;;;8.77;3.95;;;23.00;90.60;;;;;;5068005;29;20191;-65
2021/06/08 12:57:40;;;;;;;6.25;3.70;;;23.10;91.00;;;;;;5068083;29;20210;-65
2021/06/08 13:00:18;;;;;;;8.10;4.03;;;23.10;91.10;;;;;;5068183;29;20195;-64
2021/06/08 13:02:52;;;;;;;7.22;4.05;;;23.20;91.40;;;;;;5068246;29;20682;-64
2021/06/08 13:05:28;;;;;;;4.00;3.22;;;23.30;91.20;;;;;;5067798;29;20214;-59
2021/06/08 13:08:00;;;;;;;4.90;3.35;;;23.40;91.20;;;;;;5068280;29;20254;-57
2021/06/08 13:10:35;;;;;;;7.82;3.53;;;23.40;90.70;;;;;;5068355;29;20199;-63
2021/06/08 13:17:24;;;;;;;7.45;3.55;;;23.40;90.50;;;;;;5067900;29;20222;-57
2021/06/08 13:19:57;;;;;;;8.05;3.55;;;23.30;89.90;;;;;;5067944;29;20207;-57
2021/06/08 13:22:30;;;;;;;5.22;3.45;;;23.30;90.00;;;;;;5068030;29;20525;-62
2021/06/08 13:25:03;;;;;;;4.18;3.42;;;23.30;90.60;;;;;;5067946;29;20199;-57
2021/06/08 13:27:41;;;;;;;6.90;3.30;;;23.40;90.70;;;;;;5067850;29;20686;-55
2021/06/08 13:34:16;;;;;;;9.85;3.70;;;23.40;90.00;;;;;;5067729;29;20222;-64
2021/06/08 13:36:49;;;;;;;5.82;3.65;;;23.20;88.30;;;;;;5067235;29;20202;-62
2021/06/08 13:39:21;;;;;;;4.40;3.10;;;23.20;89.20;;;;;;5067340;29;20195;-64
2021/06/08 13:41:55;;;;;;;7.78;4.00;;;23.10;89.50;;;;;;5067598;29;20229;-65
2021/06/08 13:44:27;;;;;;;6.30;3.90;;;22.90;90.20;;;;;;5050428;29;20285;-67
2021/06/08 13:47:00;;;;;;;6.55;3.50;;;22.80;90.30;;;;;;5067631;29;20639;-67
2021/06/08 13:49:38;;;;;;;8.10;3.25;;;22.70;89.90;;;;;;5067478;29;20251;-67
2021/06/08 13:52:11;;;;;;;8.02;3.13;;;22.70;89.90;;;;;;5067372;29;20562;-66
2021/06/08 13:54:43;;;;;;;4.43;3.30;;;22.80;89.20;;;;;;5067412;29;20198;-66
2021/06/08 14:02:46;;;;;;;7.30;3.33;;;22.80;89.40;;;;;;5067199;29;20646;-73
2021/06/08 14:05:29;;;;;;;4.82;3.22;;;22.90;90.30;;;;;;5067173;29;20199;-70
2021/06/08 14:08:13;;;;;;;7.18;3.70;;;23.00;90.90;;;;;;5067242;29;20282;-69
2021/06/08 14:10:50;;;;;;;5.55;3.72;;;23.10;91.40;;;;;;5067947;29;20568;-64
2021/06/08 14:17:19;;;;;;;7.68;3.20;;;23.10;91.50;;;;;;5068994;29;20301;-66
2021/06/08 14:19:53;;;;;;;6.63;3.28;;;22.90;90.50;;;;;;5068222;29;20206;-69
2021/06/08 14:22:25;;;;;;;4.63;3.10;;;22.90;90.20;;;;;;5035517;29;20209;-65
2021/06/08 14:24:57;;;;;;;8.63;3.13;;;22.80;89.80;;;;;;5067324;29;20206;-64
2021/06/08 14:27:34;;;;;;;5.43;3.20;;;22.80;90.20;;;;;;5050645;29;20226;-62
2021/06/08 14:33:52;;;;;;;3.83;2.85;;;22.70;90.30;;;;;;5067184;29;20685;-67
2021/06/08 14:36:24;;;;;;;5.38;3.40;;;22.80;90.70;;;;;;5067353;29;20564;-69
2021/06/08 14:38:59;;;;;;;4.20;3.08;;;23.00;90.40;;;;;;5066805;29;20203;-64
2021/06/08 14:41:31;;;;;;;4.40;3.17;;;23.00;90.30;;;;;;5050193;29;20283;-68
2021/06/08 14:44:04;;;;;;;4.32;3.40;;;23.10;90.20;;;;;;5066948;29;20206;-73
2021/06/08 14:46:39;;;;;;;10.23;4.03;;;23.10;90.30;;;;;;5067046;29;20647;-70
2021/06/08 14:49:13;;;;;;;3.95;3.25;;;23.10;90.80;;;;;;5067078;29;20191;-71
2021/06/08 14:51:45;;;;;;;4.20;3.53;;;23.10;91.10;;;;;;5066785;29;20223;-71
2021/06/08 14:54:17;;;;;;;5.72;3.40;;;23.20;91.50;;;;;;5050099;29;20287;-62
2021/06/08 14:56:49;;;;;;;5.55;3.60;;;23.20;91.40;;;;;;5052166;29;20191;-64